Time,TemperatureF,DewpointF,PressureIn,WindDirection,WindDirectionDegrees,WindSpeedMPH,WindSpeedGustMPH,Humidity,HourlyPrecipIn,Conditions,Clouds,dailyrainin,SoftwareType,DateUTC
2013-06-18 00:01:00,56.5,49.4,28.98,ESE,112,2.3,2.3,77,0.00,CLR,OVC,0.00,WeatherDisplay:10.37,2013-06-18 07:01:00,
2013-06-18 00:06:00,56.3,49.5,28.98,SE,135,1.2,1.2,78,0.00,CLR,OVC,0.00,WeatherDisplay:10.37,2013-06-18 07:06:00,
2013-06-18 00:11:00,56.3,49.5,28.98,SE,135,2.3,2.3,78,0.00,CLR,OVC,0.00,WeatherDisplay:10.37,2013-06-18 07:11:00,
2013-06-18 00:16:00,56.1,49.4,28.98,SE,135,2.3,2.3,78,0.00,CLR,OVC,0.00,WeatherDisplay:10.37,2013-06-18 07:16:00,
2013-06-18 00:22:00,55.9,49.2,28.97,SSE,158,1.2,1.2,78,0.00,CLR,OVC,0.00,WeatherDisplay:10.37,2013-06-18 07:22:00,
2013-06-18 00:27:00,55.9,49.5,28.97,ESE,112,1.2,1.2,79,0.00,CLR,OVC,0.00,WeatherDisplay:10.37,2013-06-18 07:27:00,
2013-06-18 00:32:00,55.8,49.3,28.97,ESE,112,2.3,2.3,79,0.00,CLR,OVC,0.00,WeatherDisplay:10.37,2013-06-18 07:32:00,
2013-06-18 00:37:00,55.8,49.3,28.97,ESE,112,1.2,1.2,79,0.00,CLR,OVC,0.00,WeatherDisplay:10.37,2013-06-18 07:37:00,
2013-06-18 00:42:00,55.8,49.3,28.97,ESE,112,2.3,2.3,79,0.00,CLR,OVC,0.00,WeatherDisplay:10.37,2013-06-18 07:42:00,
2013-06-18 00:47:00,55.8,49.3,28.97,ESE,112,1.2,1.2,79,0.00,CLR,OVC,0.00,WeatherDisplay:10.37,2013-06-18 07:47:00,
2013-06-18 00:52:00,55.6,49.2,28.97,ESE,112,0.0,0.5,79,0.00,CLR,OVC,0.00,WeatherDisplay:10.37,2013-06-18 07:52:00,
2013-06-18 00:57:00,55.4,49.0,28.97,SE,135,1.2,1.2,79,0.00,CLR,OVC,0.00,WeatherDisplay:10.37,2013-06-18 07:57:00,
2013-06-18 01:02:00,55.4,48.7,28.97,East,90,1.2,1.2,78,0.00,CLR,OVC,0.00,WeatherDisplay:10.37,2013-06-18 08:02:00,
2013-06-18 01:07:00,55.2,48.5,28.97,ESE,112,2.3,2.3,78,0.00,CLR,OVC,0.00,WeatherDisplay:10.37,2013-06-18 08:07:00,
2013-06-18 01:12:00,55.0,48.3,28.97,ESE,112,2.3,2.3,78,0.00,CLR,OVC,0.00,WeatherDisplay:10.37,2013-06-18 08:12:00,
2013-06-18 01:17:00,54.7,48.0,28.97,ESE,112,1.8,1.8,78,0.00,CLR,OVC,0.00,WeatherDisplay:10.37,2013-06-18 08:17:00,
2013-06-18 01:22:00,54.3,47.9,28.97,East,90,2.3,2.3,79,0.00,CLR,OVC,0.00,WeatherDisplay:10.37,2013-06-18 08:22:00,
2013-06-18 01:27:00,54.0,47.9,28.97,ESE,112,2.3,2.3,80,0.00,CLR,OVC,0.00,WeatherDisplay:10.37,2013-06-18 08:27:00,
2013-06-18 01:32:00,53.8,48.1,28.97,East,90,3.5,3.5,81,0.00,CLR,OVC,0.00,WeatherDisplay:10.37,2013-06-18 08:32:00,
2013-06-18 01:37:00,54.0,48.6,28.97,ESE,112,2.3,2.3,82,0.00,CLR,OVC,0.00,WeatherDisplay:10.37,2013-06-18 08:37:00,
2013-06-18 01:42:00,54.0,48.6,28.97,ESE,112,2.3,2.3,82,0.00,CLR,OVC,0.00,WeatherDisplay:10.37,2013-06-18 08:42:00,
2013-06-18 01:47:00,54.0,48.6,28.97,SE,135,3.5,3.5,82,0.00,CLR,OVC,0.00,WeatherDisplay:10.37,2013-06-18 08:47:00,
2013-06-18 01:52:00,54.1,48.8,28.97,ESE,112,2.3,2.3,82,0.00,CLR,OVC,0.00,WeatherDisplay:10.37,2013-06-18 08:52:00,
2013-06-18 01:57:00,54.0,48.6,28.97,SE,135,4.6,4.6,82,0.00,CLR,OVC,0.00,WeatherDisplay:10.37,2013-06-18 08:57:00,
2013-06-18 02:02:00,54.0,49.2,28.97,ESE,112,3.5,3.5,84,0.00,CLR,OVC,0.00,WeatherDisplay:10.37,2013-06-18 09:02:00,
2013-06-18 02:07:00,54.0,49.2,28.97,ESE,112,2.3,2.3,84,0.00,CLR,OVC,0.00,WeatherDisplay:10.37,2013-06-18 09:07:00,
2013-06-18 02:12:00,53.8,49.1,28.97,ESE,112,3.8,3.8,84,0.00,CLR,OVC,0.00,WeatherDisplay:10.37,2013-06-18 09:12:00,
2013-06-18 02:17:00,53.8,49.1,28.97,ESE,112,3.5,3.5,84,0.00,CLR,OVC,0.00,WeatherDisplay:10.37,2013-06-18 09:17:00,
2013-06-18 02:22:00,53.6,48.9,28.97,ESE,112,3.5,3.5,84,0.00,CLR,OVC,0.00,WeatherDisplay:10.37,2013-06-18 09:22:00,
2013-06-18 02:27:00,53.6,48.9,28.97,ESE,112,3.5,3.5,84,0.00,CLR,OVC,0.00,WeatherDisplay:10.37,2013-06-18 09:27:00,
2013-06-18 02:32:00,53.4,49.0,28.96,East,90,3.5,3.5,85,0.00,CLR,OVC,0.00,WeatherDisplay:10.37,2013-06-18 09:32:00,
2013-06-18 02:37:00,53.2,49.2,28.96,ESE,112,4.6,4.6,86,0.00,CLR,OVC,0.00,WeatherDisplay:10.37,2013-06-18 09:37:00,
2013-06-18 02:42:00,53.2,48.8,28.96,ESE,112,4.6,4.6,85,0.00,CLR,OVC,0.00,WeatherDisplay:10.37,2013-06-18 09:42:00,
2013-06-18 02:47:00,53.2,48.8,28.96,ESE,112,4.6,4.6,85,0.00,CLR,OVC,0.00,WeatherDisplay:10.37,2013-06-18 09:47:00,
2013-06-18 02:52:00,53.2,48.8,28.96,ESE,112,4.6,4.6,85,0.00,CLR,OVC,0.00,WeatherDisplay:10.37,2013-06-18 09:52:00,
2013-06-18 02:57:00,52.9,48.5,28.96,ESE,112,3.5,3.5,85,0.00,CLR,OVC,0.00,WeatherDisplay:10.37,2013-06-18 09:57:00,
2013-06-18 03:02:00,52.9,48.5,28.96,SE,135,4.6,4.6,85,0.00,CLR,OVC,0.00,WeatherDisplay:10.37,2013-06-18 10:02:00,
2013-06-18 03:07:00,52.9,48.5,28.96,ESE,112,2.9,2.9,85,0.00,CLR,OVC,0.00,WeatherDisplay:10.37,2013-06-18 10:07:00,
2013-06-18 03:12:00,52.7,48.3,28.96,SE,135,3.5,3.5,85,0.00,CLR,OVC,0.00,WeatherDisplay:10.37,2013-06-18 10:12:00,
2013-06-18 03:17:00,52.5,48.1,28.96,ESE,112,2.3,2.3,85,0.00,CLR,OVC,0.00,WeatherDisplay:10.37,2013-06-18 10:17:00,
2013-06-18 03:22:00,52.5,48.5,28.96,ESE,112,4.6,4.6,86,0.00,CLR,OVC,0.00,WeatherDisplay:10.37,2013-06-18 10:22:00,
2013-06-18 03:27:00,52.3,48.3,28.96,ESE,112,3.5,3.5,86,0.00,CLR,OVC,0.00,WeatherDisplay:10.37,2013-06-18 10:27:00,
2013-06-18 03:32:00,52.3,48.3,28.96,East,90,5.8,5.8,86,0.00,CLR,OVC,0.00,WeatherDisplay:10.37,2013-06-18 10:32:00,
2013-06-18 03:37:00,52.3,48.3,28.96,ESE,112,3.8,3.8,86,0.00,CLR,OVC,0.00,WeatherDisplay:10.37,2013-06-18 10:37:00,
2013-06-18 03:42:00,52.2,48.1,28.96,ESE,112,4.6,4.6,86,0.00,CLR,OVC,0.00,WeatherDisplay:10.37,2013-06-18 10:42:00,
2013-06-18 03:47:00,52.2,48.1,28.96,SE,135,4.6,4.6,86,0.00,CLR,OVC,0.00,WeatherDisplay:10.37,2013-06-18 10:47:00,
2013-06-18 03:52:00,52.2,48.1,28.96,SE,135,4.6,4.6,86,0.00,CLR,OVC,0.00,WeatherDisplay:10.37,2013-06-18 10:52:00,
2013-06-18 03:57:00,52.2,48.1,28.96,ESE,112,3.5,3.5,86,0.00,CLR,OVC,0.00,WeatherDisplay:10.37,2013-06-18 10:57:00,
2013-06-18 04:02:00,51.8,47.7,28.96,ESE,112,3.5,3.5,86,0.00,CLR,OVC,0.00,WeatherDisplay:10.37,2013-06-18 11:02:00,
2013-06-18 04:07:00,51.8,47.7,28.96,ESE,112,4.6,4.6,86,0.00,CLR,OVC,0.00,WeatherDisplay:10.37,2013-06-18 11:07:00,
2013-06-18 04:12:00,52.0,48.2,28.96,East,90,3.5,3.5,87,0.00,CLR,OVC,0.00,WeatherDisplay:10.37,2013-06-18 11:12:00,
2013-06-18 04:17:00,52.0,48.2,28.96,ESE,112,4.0,4.0,87,0.00,CLR,OVC,0.00,WeatherDisplay:10.37,2013-06-18 11:17:00,
2013-06-18 04:22:00,52.0,48.2,28.96,East,90,3.5,3.5,87,0.00,CLR,OVC,0.00,WeatherDisplay:10.37,2013-06-18 11:22:00,
2013-06-18 04:27:00,52.0,48.2,28.96,ESE,112,5.8,5.8,87,0.00,CLR,OVC,0.00,WeatherDisplay:10.37,2013-06-18 11:27:00,
2013-06-18 04:32:00,52.2,48.4,28.96,ESE,112,5.4,5.4,87,0.00,CLR,OVC,0.00,WeatherDisplay:10.37,2013-06-18 11:32:00,
2013-06-18 04:37:00,52.2,48.4,28.96,ESE,112,4.0,4.0,87,0.00,CLR,OVC,0.00,WeatherDisplay:10.37,2013-06-18 11:37:00,
2013-06-18 04:42:00,52.2,48.4,28.96,East,90,4.6,4.6,87,0.00,CLR,OVC,0.00,WeatherDisplay:10.37,2013-06-18 11:42:00,
2013-06-18 04:47:00,52.0,47.9,28.96,ESE,112,2.3,2.3,86,0.00,CLR,OVC,0.00,WeatherDisplay:10.37,2013-06-18 11:47:00,
2013-06-18 04:52:00,51.8,48.1,28.96,East,90,3.5,3.5,87,0.00,CLR,OVC,0.00,WeatherDisplay:10.37,2013-06-18 11:52:00,
2013-06-18 04:57:00,51.6,47.9,28.96,ESE,112,2.3,2.3,87,0.00,CLR,OVC,0.00,WeatherDisplay:10.37,2013-06-18 11:57:00,
2013-06-18 05:02:00,51.4,48.0,28.96,ENE,68,3.6,3.6,88,0.00,CLR,OVC,0.00,WeatherDisplay:10.37,2013-06-18 12:02:00,
2013-06-18 05:07:00,51.4,48.0,28.96,ESE,112,3.5,3.5,88,0.00,CLR,OVC,0.00,WeatherDisplay:10.37,2013-06-18 12:07:00,
2013-06-18 05:12:00,51.4,48.0,28.95,ESE,112,4.9,4.9,88,0.00,CLR,OVC,0.00,WeatherDisplay:10.37,2013-06-18 12:12:00,
2013-06-18 05:17:00,51.4,48.3,28.96,ESE,112,6.9,6.9,89,0.00,CLR,OVC,0.00,WeatherDisplay:10.37,2013-06-18 12:17:00,
2013-06-18 05:22:00,51.6,48.2,28.95,NE,45,4.6,4.6,88,0.00,CLR,OVC,0.00,WeatherDisplay:10.37,2013-06-18 12:22:00,
2013-06-18 05:27:00,51.4,48.0,28.96,SE,135,3.5,3.5,88,0.00,CLR,OVC,0.00,WeatherDisplay:10.37,2013-06-18 12:27:00,
2013-06-18 05:32:00,51.4,48.0,28.96,SSE,158,3.6,3.6,88,0.00,CLR,OVC,0.00,WeatherDisplay:10.37,2013-06-18 12:32:00,
2013-06-18 05:37:00,51.4,48.0,28.96,ESE,112,3.6,3.6,88,0.00,CLR,OVC,0.00,WeatherDisplay:10.37,2013-06-18 12:37:00,
2013-06-18 05:42:00,51.4,48.0,28.96,ESE,112,2.3,2.6,88,0.00,CLR,OVC,0.00,WeatherDisplay:10.37,2013-06-18 12:42:00,
2013-06-18 05:47:00,51.4,48.0,28.96,SE,135,2.3,2.3,88,0.00,CLR,OVC,0.00,WeatherDisplay:10.37,2013-06-18 12:47:00,
2013-06-18 05:52:00,51.6,48.5,28.96,ESE,112,4.6,4.6,89,0.00,CLR,OVC,0.00,WeatherDisplay:10.37,2013-06-18 12:52:00,
2013-06-18 05:57:00,51.8,48.4,28.96,SE,135,2.4,2.4,88,0.00,CLR,OVC,0.00,WeatherDisplay:10.37,2013-06-18 12:57:00,
2013-06-18 06:03:00,52.0,48.5,28.96,ENE,68,2.3,2.3,88,0.00,CLR,OVC,0.00,WeatherDisplay:10.37,2013-06-18 13:03:00,
2013-06-18 06:07:00,52.0,48.5,28.96,ESE,112,4.6,4.6,88,0.00,CLR,OVC,0.00,WeatherDisplay:10.37,2013-06-18 13:07:00,
2013-06-18 06:13:00,52.0,48.5,28.96,SE,135,4.6,4.6,88,0.00,CLR,OVC,0.00,WeatherDisplay:10.37,2013-06-18 13:13:00,
2013-06-18 06:18:00,51.8,48.4,28.96,ESE,112,2.4,2.4,88,0.00,CLR,OVC,0.00,WeatherDisplay:10.37,2013-06-18 13:18:00,
2013-06-18 06:23:00,51.8,48.4,28.96,ESE,112,3.6,3.6,88,0.00,CLR,OVC,0.00,WeatherDisplay:10.37,2013-06-18 13:23:00,
2013-06-18 06:28:00,51.8,48.4,28.96,ESE,112,3.5,3.5,88,0.00,CLR,OVC,0.00,WeatherDisplay:10.37,2013-06-18 13:28:00,
2013-06-18 06:33:00,52.0,48.5,28.96,East,90,2.3,2.3,88,0.00,CLR,OVC,0.00,WeatherDisplay:10.37,2013-06-18 13:33:00,
2013-06-18 06:38:00,52.3,48.9,28.96,SE,135,2.3,2.3,88,0.00,CLR,OVC,0.00,WeatherDisplay:10.37,2013-06-18 13:38:00,
2013-06-18 06:43:00,52.5,49.1,28.96,SE,135,3.5,3.5,88,0.00,CLR,OVC,0.00,WeatherDisplay:10.37,2013-06-18 13:43:00,
2013-06-18 06:48:00,52.5,49.1,28.96,ESE,112,3.5,3.5,88,0.00,CLR,OVC,0.00,WeatherDisplay:10.37,2013-06-18 13:48:00,
2013-06-18 06:53:00,52.7,49.2,28.96,East,90,2.4,2.4,88,0.00,CLR,OVC,0.00,WeatherDisplay:10.37,2013-06-18 13:53:00,
2013-06-18 06:58:00,52.7,48.9,28.96,East,90,1.2,1.2,87,0.00,CLR,OVC,0.00,WeatherDisplay:10.37,2013-06-18 13:58:00,
2013-06-18 07:03:00,52.9,49.4,28.96,ESE,112,2.3,2.3,88,0.00,CLR,OVC,0.00,WeatherDisplay:10.37,2013-06-18 14:03:00,
2013-06-18 07:08:00,53.2,49.8,28.96,ESE,112,3.5,3.5,88,0.00,CLR,OVC,0.00,WeatherDisplay:10.37,2013-06-18 14:08:00,
2013-06-18 07:13:00,53.4,49.6,28.96,SSE,158,4.6,4.6,87,0.00,CLR,OVC,0.00,WeatherDisplay:10.37,2013-06-18 14:13:00,
2013-06-18 07:18:00,53.6,49.8,28.96,ESE,112,4.0,4.0,87,0.00,CLR,OVC,0.00,WeatherDisplay:10.37,2013-06-18 14:18:00,
2013-06-18 07:23:00,54.0,49.9,28.96,SE,135,2.3,2.3,86,0.00,CLR,OVC,0.00,WeatherDisplay:10.37,2013-06-18 14:23:00,
2013-06-18 07:28:00,54.7,50.6,28.96,SE,135,3.5,3.5,86,0.00,CLR,OVC,0.00,WeatherDisplay:10.37,2013-06-18 14:28:00,
2013-06-18 07:33:00,55.0,50.3,28.96,ESE,112,4.6,4.6,84,0.00,CLR,OVC,0.00,WeatherDisplay:10.37,2013-06-18 14:33:00,
2013-06-18 07:38:00,55.0,50.3,28.96,ESE,112,3.5,3.5,84,0.00,CLR,OVC,0.00,WeatherDisplay:10.37,2013-06-18 14:38:00,
2013-06-18 07:43:00,55.8,51.0,28.96,SE,135,3.1,3.1,84,0.00,CLR,OVC,0.00,WeatherDisplay:10.37,2013-06-18 14:43:00,
2013-06-18 07:48:00,58.6,53.5,28.96,SE,135,2.4,2.4,83,0.00,CLR,OVC,0.00,WeatherDisplay:10.37,2013-06-18 14:48:00,
2013-06-18 07:53:00,60.4,53.2,28.96,SE,135,3.5,3.5,77,0.00,CLR,OVC,0.00,WeatherDisplay:10.37,2013-06-18 14:53:00,
2013-06-18 07:58:00,61.0,52.3,28.96,SE,135,4.6,5.2,73,0.00,CLR,OVC,0.00,WeatherDisplay:10.37,2013-06-18 14:58:00,
2013-06-18 08:03:00,59.0,50.4,28.96,SE,135,5.8,5.8,73,0.00,CLR,OVC,0.00,WeatherDisplay:10.37,2013-06-18 15:03:00,
2013-06-18 08:08:00,57.7,50.2,28.96,ESE,112,3.5,3.5,76,0.00,CLR,OVC,0.00,WeatherDisplay:10.37,2013-06-18 15:08:00,
2013-06-18 08:13:00,59.5,51.6,28.96,ESE,112,3.5,4.0,75,0.00,CLR,OVC,0.00,WeatherDisplay:10.37,2013-06-18 15:13:00,
2013-06-18 08:18:00,60.3,51.2,28.96,ESE,112,6.4,6.4,72,0.00,CLR,OVC,0.00,WeatherDisplay:10.37,2013-06-18 15:18:00,
2013-06-18 08:23:00,59.4,50.7,28.96,ESE,112,4.6,4.6,73,0.00,CLR,OVC,0.00,WeatherDisplay:10.37,2013-06-18 15:23:00,
2013-06-18 08:28:00,58.6,50.4,28.96,ESE,112,3.5,3.5,74,0.00,CLR,OVC,0.00,WeatherDisplay:10.37,2013-06-18 15:28:00,
2013-06-18 08:33:00,58.6,50.4,28.96,ESE,112,4.6,4.6,74,0.00,CLR,OVC,0.00,WeatherDisplay:10.37,2013-06-18 15:33:00,
2013-06-18 08:38:00,60.4,52.1,28.96,SE,135,3.5,3.5,74,0.00,CLR,OVC,0.00,WeatherDisplay:10.37,2013-06-18 15:38:00,
2013-06-18 08:43:00,63.0,53.0,28.96,ESE,112,5.6,5.6,70,0.00,CLR,OVC,0.00,WeatherDisplay:10.37,2013-06-18 15:43:00,
2013-06-18 08:48:00,64.4,52.0,28.96,SSE,158,4.6,4.6,64,0.00,CLR,OVC,0.00,WeatherDisplay:10.37,2013-06-18 15:48:00,
2013-06-18 08:53:00,63.9,51.0,28.95,SE,135,5.9,5.9,63,0.00,CLR,OVC,0.00,WeatherDisplay:10.37,2013-06-18 15:53:00,
2013-06-18 08:58:00,62.4,50.5,28.95,ESE,112,5.8,5.8,65,0.00,CLR,OVC,0.00,WeatherDisplay:10.37,2013-06-18 15:58:00,
2013-06-18 09:03:00,61.3,49.5,28.95,SE,135,4.6,4.6,65,0.00,CLR,OVC,0.00,WeatherDisplay:10.37,2013-06-18 16:03:00,
2013-06-18 09:08:00,60.3,48.9,28.96,SSE,158,4.6,4.7,66,0.00,CLR,OVC,0.00,WeatherDisplay:10.37,2013-06-18 16:08:00,
2013-06-18 09:13:00,60.4,49.0,28.95,ESE,112,6.9,6.9,66,0.00,CLR,OVC,0.00,WeatherDisplay:10.37,2013-06-18 16:13:00,
2013-06-18 09:18:00,62.1,50.6,28.95,ESE,112,5.4,5.4,66,0.00,CLR,OVC,0.00,WeatherDisplay:10.37,2013-06-18 16:18:00,
2013-06-18 09:23:00,63.3,50.1,28.95,SE,135,5.8,5.8,62,0.00,CLR,OVC,0.00,WeatherDisplay:10.37,2013-06-18 16:23:00,
2013-06-18 09:28:00,63.9,49.2,28.95,SSW,202,8.1,8.1,59,0.00,CLR,OVC,0.00,WeatherDisplay:10.37,2013-06-18 16:28:00,
2013-06-18 09:33:00,63.5,49.4,28.95,ESE,112,5.8,5.8,60,0.00,CLR,OVC,0.00,WeatherDisplay:10.37,2013-06-18 16:33:00,
2013-06-18 09:38:00,62.2,49.5,28.95,SSE,158,4.6,4.6,63,0.00,CLR,OVC,0.00,WeatherDisplay:10.37,2013-06-18 16:38:00,
2013-06-18 09:43:00,63.3,49.6,28.95,ESE,112,6.9,6.9,61,0.00,CLR,OVC,0.00,WeatherDisplay:10.37,2013-06-18 16:43:00,
2013-06-18 09:48:00,63.3,49.2,28.95,SE,135,9.2,9.9,60,0.00,CLR,OVC,0.00,WeatherDisplay:10.37,2013-06-18 16:48:00,
2013-06-18 09:53:00,63.0,49.3,28.95,SE,135,5.8,5.8,61,0.00,CLR,OVC,0.00,WeatherDisplay:10.37,2013-06-18 16:53:00,
2013-06-18 09:58:00,62.6,49.4,28.95,ESE,112,4.7,4.7,62,0.00,CLR,OVC,0.00,WeatherDisplay:10.37,2013-06-18 16:58:00,
2013-06-18 10:03:00,64.0,49.9,28.95,SSE,158,4.6,4.6,60,0.00,CLR,OVC,0.00,WeatherDisplay:10.37,2013-06-18 17:03:00,
2013-06-18 10:08:00,65.1,49.0,28.95,SE,135,8.1,8.1,56,0.00,CLR,OVC,0.00,WeatherDisplay:10.37,2013-06-18 17:08:00,
2013-06-18 10:13:00,65.3,48.7,28.95,SE,135,6.9,6.9,55,0.00,CLR,OVC,0.00,WeatherDisplay:10.37,2013-06-18 17:13:00,
2013-06-18 10:18:00,64.8,47.7,28.95,SE,135,8.1,8.1,54,0.00,CLR,OVC,0.00,WeatherDisplay:10.37,2013-06-18 17:18:00,
2013-06-18 10:23:00,65.1,49.0,28.95,SE,135,4.6,4.6,56,0.00,CLR,OVC,0.00,WeatherDisplay:10.37,2013-06-18 17:23:00,
2013-06-18 10:28:00,66.7,49.6,28.95,SE,135,4.7,4.7,54,0.00,CLR,OVC,0.00,WeatherDisplay:10.37,2013-06-18 17:28:00,
2013-06-18 10:33:00,66.6,47.9,28.95,South,180,8.1,8.1,51,0.00,CLR,OVC,0.00,WeatherDisplay:10.37,2013-06-18 17:33:00,
2013-06-18 10:38:00,65.3,48.2,28.95,SE,135,5.8,5.8,54,0.00,CLR,OVC,0.00,WeatherDisplay:10.37,2013-06-18 17:38:00,
2013-06-18 10:43:00,64.8,48.2,28.95,SE,135,6.9,6.9,55,0.00,CLR,OVC,0.00,WeatherDisplay:10.37,2013-06-18 17:43:00,
2013-06-18 10:48:00,65.8,47.2,28.94,SSE,158,8.1,8.1,51,0.00,CLR,OVC,0.00,WeatherDisplay:10.37,2013-06-18 17:48:00,
2013-06-18 10:53:00,66.2,48.0,28.94,East,90,6.9,6.9,52,0.00,CLR,OVC,0.00,WeatherDisplay:10.37,2013-06-18 17:53:00,
2013-06-18 10:58:00,65.1,48.5,28.94,SE,135,5.8,5.8,55,0.00,CLR,OVC,0.00,WeatherDisplay:10.37,2013-06-18 17:58:00,
2013-06-18 11:03:00,65.8,48.2,28.94,SE,135,9.2,9.2,53,0.00,CLR,OVC,0.00,WeatherDisplay:10.37,2013-06-18 18:03:00,
2013-06-18 11:08:00,66.0,47.9,28.94,ESE,112,6.9,6.9,52,0.00,CLR,OVC,0.00,WeatherDisplay:10.37,2013-06-18 18:08:00,
2013-06-18 11:13:00,65.3,46.7,28.94,SE,135,8.1,8.1,51,0.00,CLR,OVC,0.00,WeatherDisplay:10.37,2013-06-18 18:13:00,
2013-06-18 11:18:00,64.4,46.9,28.94,SE,135,8.1,8.1,53,0.00,CLR,OVC,0.00,WeatherDisplay:10.37,2013-06-18 18:18:00,
2013-06-18 11:23:00,65.3,47.7,28.94,East,90,8.1,8.1,53,0.00,CLR,OVC,0.00,WeatherDisplay:10.37,2013-06-18 18:23:00,
2013-06-18 11:28:00,64.9,46.9,28.94,ESE,112,8.1,8.1,52,0.00,CLR,OVC,0.00,WeatherDisplay:10.37,2013-06-18 18:28:00,
2013-06-18 11:33:00,65.8,48.2,28.94,ESE,112,6.9,6.9,53,0.00,CLR,OVC,0.00,WeatherDisplay:10.37,2013-06-18 18:33:00,
2013-06-18 11:39:00,66.6,47.9,28.94,SE,135,6.9,6.9,51,0.00,CLR,OVC,0.00,WeatherDisplay:10.37,2013-06-18 18:39:00,
2013-06-18 11:44:00,66.6,46.3,28.94,South,180,8.1,8.1,48,0.00,CLR,OVC,0.00,WeatherDisplay:10.37,2013-06-18 18:44:00,
2013-06-18 11:49:00,66.0,46.3,28.94,SE,135,8.1,8.1,49,0.00,CLR,OVC,0.00,WeatherDisplay:10.37,2013-06-18 18:49:00,
2013-06-18 11:54:00,66.2,49.1,28.94,SSW,202,5.8,5.8,54,0.00,CLR,OVC,0.00,WeatherDisplay:10.37,2013-06-18 18:54:00,
2013-06-18 11:59:00,67.6,49.4,28.94,South,180,5.8,5.8,52,0.00,CLR,OVC,0.00,WeatherDisplay:10.37,2013-06-18 18:59:00,
2013-06-18 12:04:00,68.2,48.3,28.94,SSE,158,5.8,5.8,49,0.00,CLR,OVC,0.00,WeatherDisplay:10.37,2013-06-18 19:04:00,
2013-06-18 12:09:00,68.7,48.2,28.94,South,180,5.8,5.8,48,0.00,CLR,OVC,0.00,WeatherDisplay:10.37,2013-06-18 19:09:00,
2013-06-18 12:14:00,69.1,48.6,28.94,SE,135,8.1,8.1,48,0.00,CLR,OVC,0.00,WeatherDisplay:10.37,2013-06-18 19:14:00,
2013-06-18 12:19:00,69.4,48.3,28.94,SSE,158,8.1,8.1,47,0.00,CLR,OVC,0.00,WeatherDisplay:10.37,2013-06-18 19:19:00,
2013-06-18 12:24:00,68.9,47.3,28.94,SE,135,10.4,10.4,46,0.00,CLR,OVC,0.00,WeatherDisplay:10.37,2013-06-18 19:24:00,
2013-06-18 12:29:00,68.5,47.5,28.94,SE,135,9.2,9.2,47,0.00,CLR,OVC,0.00,WeatherDisplay:10.37,2013-06-18 19:29:00,
2013-06-18 12:34:00,68.5,45.8,28.94,SE,135,9.2,9.2,44,0.00,CLR,OVC,0.00,WeatherDisplay:10.37,2013-06-18 19:34:00,
2013-06-18 12:39:00,68.2,46.6,28.93,SE,135,6.9,6.9,46,0.00,CLR,OVC,0.00,WeatherDisplay:10.37,2013-06-18 19:39:00,
2013-06-18 12:44:00,69.6,49.1,28.93,SW,225,5.8,6.4,48,0.00,CLR,OVC,0.00,WeatherDisplay:10.37,2013-06-18 19:44:00,
2013-06-18 12:49:00,70.2,47.8,28.93,SSW,202,8.1,8.1,45,0.00,CLR,OVC,0.00,WeatherDisplay:10.37,2013-06-18 19:49:00,
2013-06-18 12:54:00,69.4,47.2,28.93,ESE,112,5.8,5.8,45,0.00,CLR,OVC,0.00,WeatherDisplay:10.37,2013-06-18 19:54:00,
2013-06-18 12:59:00,68.4,45.6,28.93,SE,135,8.1,8.1,44,0.00,CLR,OVC,0.00,WeatherDisplay:10.37,2013-06-18 19:59:00,
2013-06-18 13:04:00,68.9,48.4,28.93,SE,135,5.8,5.8,48,0.00,CLR,OVC,0.00,WeatherDisplay:10.37,2013-06-18 20:04:00,
2013-06-18 13:09:00,69.3,47.6,28.93,SE,135,4.6,4.6,46,0.00,CLR,OVC,0.00,WeatherDisplay:10.37,2013-06-18 20:09:00,
2013-06-18 13:14:00,70.0,48.2,28.92,SSW,202,8.1,8.1,46,0.00,CLR,OVC,0.00,WeatherDisplay:10.37,2013-06-18 20:14:00,
2013-06-18 13:19:00,70.0,47.1,28.92,ENE,68,8.1,8.1,44,0.00,CLR,OVC,0.00,WeatherDisplay:10.37,2013-06-18 20:19:00,
2013-06-18 13:24:00,70.2,48.4,28.92,SSE,158,5.9,5.9,46,0.00,CLR,OVC,0.00,WeatherDisplay:10.37,2013-06-18 20:24:00,
2013-06-18 13:29:00,70.5,47.5,28.92,South,180,8.1,8.1,44,0.00,CLR,OVC,0.00,WeatherDisplay:10.37,2013-06-18 20:29:00,
2013-06-18 13:34:00,70.9,47.9,28.92,SSE,158,8.1,8.1,44,0.00,CLR,OVC,0.00,WeatherDisplay:10.37,2013-06-18 20:34:00,
2013-06-18 13:39:00,69.8,47.5,28.92,ESE,112,8.1,8.3,45,0.00,CLR,OVC,0.00,WeatherDisplay:10.37,2013-06-18 20:39:00,
2013-06-18 13:44:00,69.8,47.5,28.92,SSW,202,8.1,8.1,45,0.00,CLR,OVC,0.00,WeatherDisplay:10.37,2013-06-18 20:44:00,
2013-06-18 13:49:00,69.4,48.3,28.92,SW,225,4.9,4.9,47,0.00,CLR,OVC,0.00,WeatherDisplay:10.37,2013-06-18 20:49:00,
2013-06-18 13:54:00,70.2,47.8,28.92,SSE,158,7.4,7.4,45,0.00,CLR,OVC,0.00,WeatherDisplay:10.37,2013-06-18 20:54:00,
2013-06-18 13:59:00,70.9,48.5,28.92,SW,225,8.1,8.1,45,0.00,CLR,OVC,0.00,WeatherDisplay:10.37,2013-06-18 20:59:00,
2013-06-18 14:04:00,71.6,48.5,28.92,SSW,202,6.9,6.9,44,0.00,CLR,OVC,0.00,WeatherDisplay:10.37,2013-06-18 21:04:00,
2013-06-18 14:09:00,70.9,47.3,28.92,ESE,112,6.9,6.9,43,0.00,CLR,OVC,0.00,WeatherDisplay:10.37,2013-06-18 21:09:00,
2013-06-18 14:14:00,69.4,47.2,28.92,South,180,8.1,8.1,45,0.00,CLR,OVC,0.00,WeatherDisplay:10.37,2013-06-18 21:14:00,
2013-06-18 14:19:00,67.6,48.3,28.92,SW,225,8.1,8.1,50,0.00,CLR,OVC,0.00,WeatherDisplay:10.37,2013-06-18 21:19:00,
2013-06-18 14:24:00,66.0,48.4,28.93,WSW,248,8.1,8.1,53,0.00,CLR,OVC,0.00,WeatherDisplay:10.37,2013-06-18 21:24:00,
2013-06-18 14:29:00,64.2,47.7,28.93,West,270,2.3,2.3,55,0.00,CLR,OVC,0.00,WeatherDisplay:10.37,2013-06-18 21:29:00,
2013-06-18 14:34:00,63.7,47.2,28.93,West,270,4.6,4.6,55,0.00,CLR,OVC,0.00,WeatherDisplay:10.37,2013-06-18 21:34:00,
2013-06-18 14:39:00,63.7,47.7,28.93,ENE,68,3.6,3.6,56,0.00,CLR,OVC,0.00,WeatherDisplay:10.37,2013-06-18 21:39:00,
2013-06-18 14:44:00,63.9,47.9,28.92,SSW,202,1.2,1.2,56,0.00,CLR,OVC,0.00,WeatherDisplay:10.37,2013-06-18 21:44:00,
2013-06-18 14:49:00,65.1,49.5,28.92,West,270,2.3,2.3,57,0.00,CLR,OVC,0.00,WeatherDisplay:10.37,2013-06-18 21:49:00,
2013-06-18 14:54:00,66.4,49.7,28.92,West,270,2.3,2.3,55,0.00,CLR,OVC,0.00,WeatherDisplay:10.37,2013-06-18 21:54:00,
2013-06-18 14:59:00,67.6,50.4,28.92,SE,135,1.2,1.2,54,0.00,CLR,OVC,0.00,WeatherDisplay:10.37,2013-06-18 21:59:00,
2013-06-18 15:04:00,68.7,50.4,28.92,WNW,292,3.5,3.5,52,0.00,CLR,OVC,0.00,WeatherDisplay:10.37,2013-06-18 22:04:00,
2013-06-18 15:09:00,69.3,50.9,28.92,East,90,1.2,1.2,52,0.00,CLR,OVC,0.00,WeatherDisplay:10.37,2013-06-18 22:09:00,
2013-06-18 15:14:00,70.5,51.0,28.92,NW,315,2.3,2.6,50,0.00,CLR,OVC,0.00,WeatherDisplay:10.37,2013-06-18 22:14:00,
2013-06-18 15:19:00,69.6,50.2,28.92,SSW,202,2.3,2.3,50,0.00,CLR,OVC,0.00,WeatherDisplay:10.37,2013-06-18 22:19:00,
2013-06-18 15:24:00,68.9,49.5,28.92,SW,225,1.2,1.2,50,0.00,CLR,OVC,0.00,WeatherDisplay:10.37,2013-06-18 22:24:00,
2013-06-18 15:29:00,67.6,48.3,28.92,South,180,2.3,3.1,50,0.00,CLR,OVC,0.00,WeatherDisplay:10.37,2013-06-18 22:29:00,
2013-06-18 15:34:00,65.7,48.1,28.93,SSW,202,4.6,4.6,53,0.00,CLR,OVC,0.00,WeatherDisplay:10.37,2013-06-18 22:34:00,
2013-06-18 15:39:00,62.6,47.6,28.94,WSW,248,6.9,6.9,58,0.00,CLR,OVC,0.00,WeatherDisplay:10.37,2013-06-18 22:39:00,
2013-06-18 15:44:00,60.3,48.0,28.94,SSE,158,4.6,4.6,64,0.02,RA,OVC,0.02,WeatherDisplay:10.37,2013-06-18 22:44:00,
2013-06-18 15:49:00,58.8,47.1,28.94,SSE,158,2.3,2.3,65,0.05,RA,OVC,0.05,WeatherDisplay:10.37,2013-06-18 22:49:00,
2013-06-18 15:54:00,57.9,48.6,28.94,East,90,3.5,3.5,71,0.08,RA,OVC,0.09,WeatherDisplay:10.37,2013-06-18 22:54:00,
2013-06-18 15:59:00,57.2,48.6,28.93,SW,225,2.3,2.3,73,0.11,RA,OVC,0.11,WeatherDisplay:10.37,2013-06-18 22:59:00,
2013-06-18 16:04:00,57.7,49.5,28.93,SW,225,2.3,2.3,74,0.11,RA,OVC,0.11,WeatherDisplay:10.37,2013-06-18 23:04:00,
2013-06-18 16:09:00,59.7,51.8,28.92,ESE,112,2.3,2.3,75,0.11,CLR,OVC,0.11,WeatherDisplay:10.37,2013-06-18 23:09:00,
2013-06-18 16:14:00,62.1,52.9,28.92,ENE,68,2.3,2.3,72,0.11,CLR,OVC,0.11,WeatherDisplay:10.37,2013-06-18 23:14:00,
2013-06-18 16:19:00,64.0,54.1,28.92,ESE,112,2.3,2.3,70,0.12,RA,OVC,0.12,WeatherDisplay:10.37,2013-06-18 23:19:00,
2013-06-18 16:24:00,67.3,55.9,28.93,SE,135,1.2,1.2,67,0.12,RA,OVC,0.12,WeatherDisplay:10.37,2013-06-18 23:24:00,
2013-06-18 16:29:00,70.0,55.0,28.92,West,270,1.8,1.8,59,0.12,,OVC,0.12,WeatherDisplay:10.37,2013-06-18 23:29:00,
2013-06-18 16:34:00,69.4,53.1,28.92,West,270,2.3,2.3,56,0.12,CLR,OVC,0.12,WeatherDisplay:10.37,2013-06-18 23:34:00,
2013-06-18 16:39:00,69.6,54.7,28.92,SW,225,2.3,2.3,59,0.12,CLR,OVC,0.12,WeatherDisplay:10.37,2013-06-18 23:39:00,
2013-06-18 16:44:00,70.2,53.7,28.92,West,270,2.3,2.3,56,0.10,CLR,OVC,0.12,WeatherDisplay:10.37,2013-06-18 23:44:00,
2013-06-18 16:49:00,70.0,53.1,28.92,SW,225,2.3,2.3,55,0.07,CLR,OVC,0.12,WeatherDisplay:10.37,2013-06-18 23:49:00,
2013-06-18 16:54:00,69.8,51.4,28.92,West,270,2.3,2.3,52,0.03,CLR,OVC,0.12,WeatherDisplay:10.37,2013-06-18 23:54:00,
2013-06-18 16:59:00,70.7,54.2,28.92,West,270,1.2,1.2,56,0.01,CLR,OVC,0.12,WeatherDisplay:10.37,2013-06-18 23:59:00,
2013-06-18 17:04:00,71.2,53.7,28.92,West,270,1.2,1.2,54,0.01,CLR,OVC,0.12,WeatherDisplay:10.37,2013-06-19 00:04:00,
2013-06-18 17:09:00,69.3,50.9,28.92,WSW,248,1.2,1.2,52,0.01,CLR,OVC,0.12,WeatherDisplay:10.37,2013-06-19 00:09:00,
2013-06-18 17:14:00,68.7,52.4,28.92,West,270,1.2,1.2,56,0.01,CLR,OVC,0.12,WeatherDisplay:10.37,2013-06-19 00:14:00,
2013-06-18 17:19:00,70.3,53.9,28.93,SW,225,2.4,2.4,56,0.00,CLR,OVC,0.12,WeatherDisplay:10.37,2013-06-19 00:19:00,
2013-06-18 17:24:00,68.4,52.0,28.92,North,0,2.3,2.4,56,0.00,CLR,OVC,0.12,WeatherDisplay:10.37,2013-06-19 00:24:00,
2013-06-18 17:29:00,66.0,50.8,28.93,WSW,248,3.5,3.5,58,0.00,CLR,OVC,0.12,WeatherDisplay:10.37,2013-06-19 00:29:00,
2013-06-18 17:35:00,63.9,50.6,28.93,SE,135,4.6,4.6,62,0.00,CLR,OVC,0.12,WeatherDisplay:10.37,2013-06-19 00:35:00,
2013-06-18 17:40:00,62.4,50.9,28.92,ESE,112,1.6,1.6,66,0.03,RA,OVC,0.15,WeatherDisplay:10.37,2013-06-19 00:40:00,
2013-06-18 17:45:00,62.1,51.4,28.92,NNE,22,0.2,0.2,68,0.04,RA,OVC,0.16,WeatherDisplay:10.37,2013-06-19 00:45:00,
2013-06-18 17:50:00,61.2,51.3,28.92,WNW,292,2.6,2.6,70,0.04,RA,OVC,0.16,WeatherDisplay:10.37,2013-06-19 00:50:00,
2013-06-18 17:55:00,60.1,51.0,28.92,WNW,292,1.2,1.2,72,0.04,CLR,OVC,0.16,WeatherDisplay:10.37,2013-06-19 00:55:00,
2013-06-18 18:00:00,61.5,52.8,28.92,WSW,248,1.2,1.2,73,0.04,CLR,OVC,0.16,WeatherDisplay:10.37,2013-06-19 01:00:00,
2013-06-18 18:05:00,63.0,53.4,28.92,West,270,2.3,2.3,71,0.04,CLR,OVC,0.16,WeatherDisplay:10.37,2013-06-19 01:05:00,
2013-06-18 18:10:00,63.0,53.8,28.92,WNW,292,1.2,1.2,72,0.04,CLR,OVC,0.16,WeatherDisplay:10.37,2013-06-19 01:10:00,
2013-06-18 18:15:00,63.1,53.6,28.92,WSW,248,1.2,1.2,71,0.04,CLR,OVC,0.16,WeatherDisplay:10.37,2013-06-19 01:15:00,
2013-06-18 18:20:00,65.5,56.2,28.92,ESE,112,1.6,1.6,72,0.04,CLR,OVC,0.16,WeatherDisplay:10.37,2013-06-19 01:20:00,
2013-06-18 18:25:00,69.1,57.2,28.92,West,270,0.9,0.9,66,0.05,RA,OVC,0.17,WeatherDisplay:10.37,2013-06-19 01:25:00,
2013-06-18 18:30:00,68.4,55.3,28.92,West,270,2.3,2.3,63,0.05,RA,OVC,0.17,WeatherDisplay:10.37,2013-06-19 01:30:00,
2013-06-18 18:35:00,66.2,53.7,28.92,WSW,248,2.3,2.3,64,0.05,CLR,OVC,0.17,WeatherDisplay:10.37,2013-06-19 01:35:00,
2013-06-18 18:40:00,65.3,53.2,28.92,WSW,248,2.3,2.3,65,0.02,CLR,OVC,0.17,WeatherDisplay:10.37,2013-06-19 01:40:00,
2013-06-18 18:45:00,64.4,52.4,28.92,West,270,1.2,0.0,65,0.01,CLR,OVC,0.17,WeatherDisplay:10.37,2013-06-19 01:45:00,
2013-06-18 18:50:00,64.0,52.9,28.92,WNW,292,0.0,0.2,67,0.01,CLR,OVC,0.17,WeatherDisplay:10.37,2013-06-19 01:50:00,
2013-06-18 18:55:00,66.4,55.1,28.92,West,270,0.2,0.2,67,0.01,CLR,OVC,0.17,WeatherDisplay:10.37,2013-06-19 01:55:00,
2013-06-18 19:00:00,69.1,56.0,28.92,WSW,248,1.2,1.2,63,0.01,CLR,OVC,0.17,WeatherDisplay:10.37,2013-06-19 02:00:00,
2013-06-18 19:05:00,70.7,56.1,28.92,WSW,248,0.5,0.5,60,0.01,CLR,OVC,0.17,WeatherDisplay:10.37,2013-06-19 02:05:00,
2013-06-18 19:10:00,70.3,55.3,28.92,WSW,248,1.2,1.2,59,0.01,CLR,OVC,0.17,WeatherDisplay:10.37,2013-06-19 02:10:00,
2013-06-18 19:15:00,70.2,55.2,28.92,NW,315,1.2,1.2,59,0.01,CLR,OVC,0.17,WeatherDisplay:10.37,2013-06-19 02:15:00,
2013-06-18 19:20:00,70.9,55.8,28.92,SSW,202,1.2,1.2,59,0.01,CLR,OVC,0.17,WeatherDisplay:10.37,2013-06-19 02:20:00,
2013-06-18 19:25:00,72.0,55.9,28.92,WSW,248,1.2,1.2,57,0.00,CLR,OVC,0.17,WeatherDisplay:10.37,2013-06-19 02:25:00,
2013-06-18 19:30:00,70.2,53.2,28.92,WSW,248,1.2,1.2,55,0.00,CLR,OVC,0.17,WeatherDisplay:10.37,2013-06-19 02:30:00,
2013-06-18 19:35:00,67.3,51.5,28.92,WSW,248,1.2,1.2,57,0.00,CLR,OVC,0.17,WeatherDisplay:10.37,2013-06-19 02:35:00,
2013-06-18 19:40:00,65.1,50.9,28.92,West,270,1.2,1.2,60,0.00,CLR,OVC,0.17,WeatherDisplay:10.37,2013-06-19 02:40:00,
2013-06-18 19:45:00,63.5,50.7,28.92,SSE,158,0.0,0.2,63,0.00,CLR,OVC,0.17,WeatherDisplay:10.37,2013-06-19 02:45:00,
2013-06-18 19:50:00,62.4,50.5,28.92,SSW,202,2.3,2.3,65,0.00,CLR,OVC,0.17,WeatherDisplay:10.37,2013-06-19 02:50:00,
2013-06-18 19:55:00,61.5,50.1,28.93,East,90,0.5,0.5,66,0.00,CLR,OVC,0.17,WeatherDisplay:10.37,2013-06-19 02:55:00,
2013-06-18 20:00:00,60.8,49.4,28.92,SSE,158,1.2,1.2,66,0.00,CLR,OVC,0.17,WeatherDisplay:10.37,2013-06-19 03:00:00,
2013-06-18 20:05:00,60.1,49.1,28.93,SE,135,0.0,0.0,67,0.00,CLR,OVC,0.17,WeatherDisplay:10.37,2013-06-19 03:05:00,
2013-06-18 20:10:00,59.4,48.8,28.93,SW,225,1.2,1.2,68,0.00,CLR,OVC,0.17,WeatherDisplay:10.37,2013-06-19 03:10:00,
2013-06-18 20:15:00,58.8,48.7,28.93,SSE,158,1.2,1.2,69,0.00,CLR,OVC,0.17,WeatherDisplay:10.37,2013-06-19 03:15:00,
2013-06-18 20:20:00,57.9,47.8,28.93,SW,225,1.2,1.2,69,0.00,CLR,OVC,0.17,WeatherDisplay:10.37,2013-06-19 03:20:00,
2013-06-18 20:25:00,57.2,47.9,28.93,SW,225,1.2,1.2,71,0.00,CLR,OVC,0.17,WeatherDisplay:10.37,2013-06-19 03:25:00,
2013-06-18 20:30:00,56.8,47.5,28.93,SW,225,0.0,0.0,71,0.00,CLR,OVC,0.17,WeatherDisplay:10.37,2013-06-19 03:30:00,
2013-06-18 20:35:00,57.2,48.6,28.93,East,90,1.2,1.2,73,0.00,CLR,OVC,0.17,WeatherDisplay:10.37,2013-06-19 03:35:00,
2013-06-18 20:40:00,57.0,48.1,28.93,SW,225,1.2,1.2,72,0.00,CLR,OVC,0.17,WeatherDisplay:10.37,2013-06-19 03:40:00,
2013-06-18 20:45:00,56.3,47.8,28.93,South,180,0.0,0.5,73,0.00,CLR,OVC,0.17,WeatherDisplay:10.37,2013-06-19 03:45:00,
2013-06-18 20:50:00,55.8,47.6,28.92,SW,225,1.2,1.2,74,0.00,CLR,OVC,0.17,WeatherDisplay:10.37,2013-06-19 03:50:00,
2013-06-18 20:55:00,55.0,47.6,28.92,WSW,248,1.4,1.4,76,0.00,CLR,OVC,0.17,WeatherDisplay:10.37,2013-06-19 03:55:00,
2013-06-18 21:00:00,54.3,46.9,28.93,WSW,248,2.3,2.3,76,0.00,CLR,OVC,0.17,WeatherDisplay:10.37,2013-06-19 04:00:00,
2013-06-18 21:01:00,54.5,47.4,28.93,WSW,248,2.3,2.3,77,0.00,CLR,OVC,0.17,WeatherDisplay:10.37,2013-06-19 04:01:00,
2013-06-18 21:02:00,54.3,46.9,28.93,WNW,292,1.4,1.4,76,0.00,CLR,OVC,0.17,WeatherDisplay:10.37,2013-06-19 04:02:00,
2013-06-18 21:07:00,54.0,47.3,28.93,ENE,68,2.3,2.3,78,0.00,CLR,OVC,0.17,WeatherDisplay:10.37,2013-06-19 04:07:00,
2013-06-18 21:12:00,53.8,47.1,28.93,South,180,1.2,1.2,78,0.00,CLR,OVC,0.17,WeatherDisplay:10.37,2013-06-19 04:12:00,
2013-06-18 21:17:00,53.6,47.6,28.93,WNW,292,2.3,2.3,80,0.00,CLR,OVC,0.17,WeatherDisplay:10.37,2013-06-19 04:17:00,
2013-06-18 21:22:00,53.4,47.4,28.93,West,270,1.2,1.2,80,0.00,CLR,OVC,0.17,WeatherDisplay:10.37,2013-06-19 04:22:00,
2013-06-18 21:27:00,53.2,47.2,28.93,West,270,2.3,2.3,80,0.00,CLR,OVC,0.17,WeatherDisplay:10.37,2013-06-19 04:27:00,
2013-06-18 21:32:00,53.1,46.7,28.93,WSW,248,0.0,0.0,79,0.00,CLR,OVC,0.17,WeatherDisplay:10.37,2013-06-19 04:32:00,
2013-06-18 21:37:00,52.9,46.5,28.93,NW,315,0.0,0.0,79,0.00,CLR,OVC,0.17,WeatherDisplay:10.37,2013-06-19 04:37:00,
2013-06-18 21:42:00,52.9,46.5,28.93,NNW,338,0.0,0.0,79,0.00,CLR,OVC,0.17,WeatherDisplay:10.37,2013-06-19 04:42:00,
2013-06-18 21:47:00,52.7,46.7,28.93,WNW,292,1.2,1.2,80,0.00,CLR,OVC,0.17,WeatherDisplay:10.37,2013-06-19 04:47:00,
2013-06-18 21:52:00,52.5,46.5,28.93,West,270,1.2,1.2,80,0.00,CLR,OVC,0.17,WeatherDisplay:10.37,2013-06-19 04:52:00,
2013-06-18 21:57:00,52.3,46.4,28.93,WNW,292,0.0,0.0,80,0.00,CLR,OVC,0.17,WeatherDisplay:10.37,2013-06-19 04:57:00,
2013-06-18 22:02:00,52.2,46.2,28.93,West,270,1.2,1.2,80,0.00,CLR,OVC,0.17,WeatherDisplay:10.37,2013-06-19 05:02:00,
2013-06-18 22:07:00,52.0,46.0,28.93,WSW,248,1.2,0.0,80,0.00,CLR,OVC,0.17,WeatherDisplay:10.37,2013-06-19 05:07:00,
2013-06-18 22:12:00,51.8,46.2,28.93,NNW,338,1.2,1.2,81,0.00,CLR,OVC,0.17,WeatherDisplay:10.37,2013-06-19 05:12:00,
2013-06-18 22:17:00,51.6,46.3,28.93,WNW,292,0.0,0.0,82,0.00,CLR,OVC,0.17,WeatherDisplay:10.37,2013-06-19 05:17:00,
2013-06-18 22:22:00,51.6,46.3,28.93,SSE,158,1.2,1.2,82,0.00,CLR,OVC,0.17,WeatherDisplay:10.37,2013-06-19 05:22:00,
2013-06-18 22:27:00,51.4,46.4,28.93,SW,225,1.2,1.2,83,0.00,CLR,OVC,0.17,WeatherDisplay:10.37,2013-06-19 05:27:00,
2013-06-18 22:32:00,51.4,46.4,28.93,NE,45,1.2,1.2,83,0.00,CLR,OVC,0.17,WeatherDisplay:10.37,2013-06-19 05:32:00,
2013-06-18 22:37:00,51.6,46.6,28.93,NE,45,0.0,0.9,83,0.00,CLR,OVC,0.17,WeatherDisplay:10.37,2013-06-19 05:37:00,
2013-06-18 22:42:00,51.6,46.9,28.94,West,270,1.2,1.2,84,0.00,CLR,OVC,0.17,WeatherDisplay:10.37,2013-06-19 05:42:00,
2013-06-18 22:47:00,51.8,47.1,28.93,WSW,248,1.2,1.2,84,0.00,CLR,OVC,0.17,WeatherDisplay:10.37,2013-06-19 05:47:00,
2013-06-18 22:52:00,51.8,47.1,28.94,NNW,338,1.2,1.2,84,0.00,CLR,OVC,0.17,WeatherDisplay:10.37,2013-06-19 05:52:00,
2013-06-18 22:57:00,51.8,47.1,28.94,WSW,248,0.5,0.5,84,0.00,CLR,OVC,0.17,WeatherDisplay:10.37,2013-06-19 05:57:00,
2013-06-18 23:02:00,51.8,47.1,28.94,WNW,292,1.2,0.0,84,0.00,CLR,OVC,0.17,WeatherDisplay:10.37,2013-06-19 06:02:00,
2013-06-18 23:07:00,51.8,47.1,28.94,WNW,292,0.5,0.5,84,0.00,CLR,OVC,0.17,WeatherDisplay:10.37,2013-06-19 06:07:00,
2013-06-18 23:12:00,51.6,46.9,28.94,WNW,292,1.2,1.2,84,0.00,CLR,OVC,0.17,WeatherDisplay:10.37,2013-06-19 06:12:00,
2013-06-18 23:17:00,51.4,46.8,28.94,West,270,0.0,0.0,84,0.00,CLR,OVC,0.17,WeatherDisplay:10.37,2013-06-19 06:17:00,
2013-06-18 23:22:00,51.4,46.8,28.94,NNW,338,1.2,1.2,84,0.00,CLR,OVC,0.17,WeatherDisplay:10.37,2013-06-19 06:22:00,
2013-06-18 23:27:00,51.4,46.8,28.94,WNW,292,1.2,1.2,84,0.00,CLR,OVC,0.17,WeatherDisplay:10.37,2013-06-19 06:27:00,
2013-06-18 23:32:00,51.4,46.8,28.94,West,270,1.2,0.0,84,0.00,CLR,OVC,0.17,WeatherDisplay:10.37,2013-06-19 06:32:00,
2013-06-18 23:37:00,51.4,46.8,28.94,NW,315,0.0,0.0,84,0.00,CLR,OVC,0.17,WeatherDisplay:10.37,2013-06-19 06:37:00,
2013-06-18 23:42:00,51.4,46.8,28.94,WSW,248,0.0,0.0,84,0.00,CLR,OVC,0.17,WeatherDisplay:10.37,2013-06-19 06:42:00,
2013-06-18 23:47:00,51.6,46.9,28.94,SE,135,1.2,0.0,84,0.00,CLR,OVC,0.17,WeatherDisplay:10.37,2013-06-19 06:47:00,
2013-06-18 23:52:00,51.6,46.9,28.94,SE,135,0.0,0.0,84,0.00,CLR,OVC,0.17,WeatherDisplay:10.37,2013-06-19 06:52:00,
2013-06-18 23:57:00,51.6,46.9,28.94,East,90,0.0,0.7,84,0.00,CLR,OVC,0.17,WeatherDisplay:10.37,2013-06-19 06:57:00,